createdAt,value
2022-09-03T00:01:38.136Z,52.38
2022-09-03T00:04:22.365Z,53.79
2022-09-03T00:07:01.247Z,52.94
2022-09-03T00:09:37.586Z,52.90
2022-09-03T00:12:19.744Z,52.76
2022-09-03T00:14:55.380Z,54.23
2022-09-03T00:17:35.934Z,52.94
2022-09-03T00:20:20.173Z,52.94
2022-09-03T00:22:50.917Z,53.42
2022-09-03T00:25:30.300Z,53.14
2022-09-03T00:27:58.705Z,53.17
2022-09-03T00:30:27.626Z,53.16
2022-09-03T00:33:05.692Z,54.32
2022-09-03T00:35:40.963Z,54.08
2022-09-03T00:38:11.510Z,53.35
2022-09-03T00:41:08.593Z,53.18
2022-09-03T00:44:30.737Z,53.29
2022-09-03T00:47:18.320Z,54.09
2022-09-03T00:50:04.531Z,53.51
2022-09-03T00:53:06.287Z,53.40
2022-09-03T00:55:41.961Z,53.94
2022-09-03T00:58:17.059Z,55.08
2022-09-03T01:00:45.560Z,54.09
2022-09-03T01:03:33.892Z,53.94
2022-09-03T01:06:02.085Z,54.16
2022-09-03T01:08:51.001Z,53.96
2022-09-03T01:11:37.281Z,54.21
2022-09-03T01:14:27.494Z,54.02
2022-09-03T01:17:06.660Z,54.41
2022-09-03T01:19:52.183Z,54.52
2022-09-03T01:23:00.121Z,54.46
2022-09-03T01:25:54.203Z,54.92
2022-09-03T01:28:37.141Z,55.09
2022-09-03T01:31:33.784Z,55.45
2022-09-03T01:34:16.292Z,54.94
2022-09-03T01:37:38.377Z,54.59
2022-09-03T01:40:33.736Z,55.09
2022-09-03T01:43:37.925Z,54.92
2022-09-03T01:46:18.957Z,55.37
2022-09-03T01:48:54.387Z,55.28
2022-09-03T01:51:24.044Z,55.40
2022-09-03T01:54:17.905Z,55.47
2022-09-03T01:57:19.171Z,55.44
2022-09-03T02:00:03.919Z,55.55
2022-09-03T02:02:31.764Z,55.61
2022-09-03T02:05:09.376Z,54.95
2022-09-03T02:07:46.770Z,56.01
2022-09-03T02:10:27.954Z,55.66
2022-09-03T02:13:18.445Z,55.52
2022-09-03T02:15:47.810Z,56.40
2022-09-03T02:18:33.979Z,55.64
2022-09-03T02:21:00.781Z,56.13
2022-09-03T02:23:28.993Z,56.33
2022-09-03T02:25:58.593Z,56.04
2022-09-03T02:28:26.946Z,56.08
2022-09-03T02:30:57.142Z,56.56
2022-09-03T02:33:23.818Z,56.49
2022-09-03T02:35:51.684Z,57.15
2022-09-03T02:38:27.345Z,56.44
2022-09-03T02:40:54.569Z,56.44
2022-09-03T02:43:31.158Z,56.85
2022-09-03T02:46:03.631Z,56.39
2022-09-03T02:48:30.178Z,56.93
2022-09-03T02:50:56.697Z,57.80
2022-09-03T02:53:23.169Z,57.55
2022-09-03T02:55:49.698Z,58.02
2022-09-03T02:58:16.260Z,57.77
2022-09-03T03:00:43.013Z,57.28
2022-09-03T03:03:09.490Z,57.05
2022-09-03T03:05:47.211Z,57.59
2022-09-03T03:08:21.161Z,57.82
2022-09-03T03:10:49.482Z,57.39
2022-09-03T03:13:16.473Z,57.87
2022-09-03T03:15:43.360Z,57.49
2022-09-03T03:18:14.090Z,57.29
2022-09-03T03:20:41.757Z,57.47
2022-09-03T03:23:08.879Z,57.79
2022-09-03T03:25:38.423Z,58.09
2022-09-03T03:28:05.742Z,57.82
2022-09-03T03:30:33.164Z,58.19
2022-09-03T03:33:00.014Z,57.99
2022-09-03T03:35:26.549Z,58.55
2022-09-03T03:37:53.120Z,58.20
2022-09-03T03:40:20.337Z,58.33
2022-09-03T03:42:46.873Z,58.21
2022-09-03T03:45:13.348Z,58.57
2022-09-03T03:47:39.801Z,58.31
2022-09-03T03:50:06.600Z,58.37
2022-09-03T03:52:33.054Z,58.65
2022-09-03T03:54:59.474Z,58.39
2022-09-03T03:57:25.980Z,58.38
2022-09-03T03:59:52.457Z,58.63
2022-09-03T04:02:19.035Z,59.03
2022-09-03T04:04:45.700Z,58.96
2022-09-03T04:07:12.190Z,58.82
2022-09-03T04:09:39.026Z,58.86
2022-09-03T04:12:08.578Z,58.93
2022-09-03T04:14:35.465Z,58.66
2022-09-03T04:17:03.137Z,59.24
2022-09-03T04:19:30.229Z,59.09
2022-09-03T04:21:57.117Z,59.12
2022-09-03T04:24:24.019Z,59.19
2022-09-03T04:26:50.547Z,58.75
2022-09-03T04:29:18.335Z,58.61
2022-09-03T04:32:04.879Z,58.35
2022-09-03T04:34:31.733Z,58.71
2022-09-03T04:36:59.106Z,58.31
2022-09-03T04:39:26.251Z,59.55
2022-09-03T04:41:52.833Z,59.33
2022-09-03T04:44:19.297Z,58.99
2022-09-03T04:46:47.866Z,58.96
2022-09-03T04:49:14.793Z,59.40
2022-09-03T04:51:41.505Z,59.44
2022-09-03T04:54:09.895Z,59.81
2022-09-03T04:56:36.869Z,59.32
2022-09-03T04:59:09.209Z,59.45
2022-09-03T05:01:38.084Z,59.79
2022-09-03T05:04:05.950Z,59.11
2022-09-03T05:06:33.600Z,59.28
2022-09-03T05:09:08.863Z,59.47
2022-09-03T05:11:35.480Z,59.57
2022-09-03T05:14:02.396Z,59.38
2022-09-03T05:16:31.045Z,60.18
2022-09-03T05:18:59.784Z,60.29
2022-09-03T05:21:27.085Z,59.28
2022-09-03T05:23:54.279Z,59.14
2022-09-03T05:26:23.717Z,59.03
2022-09-03T05:28:55.083Z,58.25
2022-09-03T05:31:23.042Z,58.67
2022-09-03T05:33:55.262Z,59.21
2022-09-03T05:36:23.663Z,59.59
2022-09-03T05:38:50.589Z,59.88
2022-09-03T05:41:18.895Z,60.01
2022-09-03T05:43:47.737Z,59.94
2022-09-03T05:46:18.648Z,60.09
2022-09-03T05:48:45.298Z,59.97
2022-09-03T05:51:17.648Z,60.42
2022-09-03T05:53:46.811Z,61.64
2022-09-03T05:56:24.499Z,60.24
2022-09-03T05:58:56.659Z,61.25
2022-09-03T06:01:29.447Z,61.45
2022-09-03T06:03:58.504Z,61.74
2022-09-03T06:06:27.142Z,61.24
2022-09-03T06:08:55.406Z,60.43
2022-09-03T06:11:26.917Z,60.03
2022-09-03T06:13:54.859Z,59.77
2022-09-03T06:16:28.993Z,59.44
2022-09-03T06:18:59.872Z,60.58
2022-09-03T06:21:26.785Z,60.62
2022-09-03T06:23:56.866Z,60.02
2022-09-03T06:26:28.192Z,60.05
2022-09-03T06:28:56.364Z,58.64
2022-09-03T06:31:23.398Z,60.16
2022-09-03T06:33:50.345Z,59.75
2022-09-03T06:36:18.711Z,59.41
2022-09-03T06:38:46.230Z,60.10
2022-09-03T06:41:26.447Z,60.09
2022-09-03T06:44:04.717Z,59.06
2022-09-03T06:46:33.313Z,58.93
2022-09-03T06:49:00.429Z,60.36
2022-09-03T06:51:29.287Z,59.24
2022-09-03T06:54:04.443Z,59.53
2022-09-03T06:56:37.387Z,59.46
2022-09-03T06:59:14.302Z,59.12
2022-09-03T07:01:45.524Z,58.24
2022-09-03T07:04:16.279Z,57.74
2022-09-03T07:06:44.484Z,56.96
2022-09-03T07:09:12.407Z,57.00
2022-09-03T07:11:46.650Z,57.83
2022-09-03T07:14:14.465Z,56.83
2022-09-03T07:16:43.043Z,57.63
2022-09-03T07:19:10.254Z,56.23
2022-09-03T07:21:37.111Z,56.63
2022-09-03T07:24:05.738Z,56.90
2022-09-03T07:26:38.528Z,55.71
2022-09-03T07:29:07.801Z,55.64
2022-09-03T07:31:37.108Z,55.00
2022-09-03T07:34:12.665Z,55.42
2022-09-03T07:36:43.009Z,54.73
2022-09-03T07:39:12.260Z,54.11
2022-09-03T07:41:39.502Z,53.72
2022-09-03T07:44:08.556Z,54.54
2022-09-03T07:46:37.924Z,54.19
2022-09-03T07:49:06.212Z,53.66
2022-09-03T07:51:37.453Z,53.23
2022-09-03T07:54:09.160Z,53.17
2022-09-03T07:56:36.370Z,53.05
2022-09-03T07:59:03.815Z,52.59
2022-09-03T08:01:32.844Z,51.28
2022-09-03T08:04:00.868Z,49.70
2022-09-03T08:06:29.819Z,50.81
2022-09-03T08:09:05.306Z,50.67
2022-09-03T08:11:36.054Z,49.83
2022-09-03T08:14:06.215Z,50.07
2022-09-03T08:16:35.550Z,49.83
2022-09-03T08:19:02.103Z,51.35
2022-09-03T08:21:28.936Z,48.99
2022-09-03T08:24:02.631Z,49.18
2022-09-03T08:26:37.785Z,49.25
2022-09-03T08:29:05.304Z,48.36
2022-09-03T08:31:32.899Z,49.34
2022-09-03T08:34:06.935Z,49.31
2022-09-03T08:36:38.899Z,48.81
2022-09-03T08:39:10.799Z,46.49
2022-09-03T08:42:02.066Z,47.52
2022-09-03T08:44:47.060Z,47.48
2022-09-03T08:47:34.774Z,46.10
2022-09-03T08:50:10.184Z,46.84
2022-09-03T08:52:54.895Z,46.90
2022-09-03T08:55:44.897Z,46.68
2022-09-03T08:58:20.420Z,46.67
2022-09-03T09:01:01.535Z,45.68
2022-09-03T09:03:37.973Z,45.11
2022-09-03T09:06:13.300Z,44.59
2022-09-03T09:09:01.717Z,45.11
2022-09-03T09:11:45.500Z,45.70
2022-09-03T09:14:42.186Z,45.42
2022-09-03T09:17:09.096Z,45.08
2022-09-03T09:19:50.907Z,45.69
2022-09-03T09:22:47.381Z,44.63
2022-09-03T09:25:19.392Z,45.86
2022-09-03T09:27:58.847Z,44.39
2022-09-03T09:30:27.944Z,44.77
2022-09-03T09:32:55.330Z,43.75
2022-09-03T09:35:22.400Z,44.27
2022-09-03T09:37:50.994Z,42.97
2022-09-03T09:40:28.137Z,43.72
2022-09-03T09:43:24.593Z,43.97
2022-09-03T09:45:54.723Z,43.24
2022-09-03T09:48:34.018Z,42.24
2022-09-03T09:51:10.132Z,42.90
2022-09-03T09:53:37.188Z,41.65
2022-09-03T09:56:03.837Z,41.39
2022-09-03T09:58:33.036Z,41.46
2022-09-03T10:01:18.564Z,40.86
2022-09-03T10:03:55.523Z,40.45
2022-09-03T10:06:49.293Z,40.65
2022-09-03T10:09:18.181Z,40.18
2022-09-03T10:11:52.932Z,40.04
2022-09-03T10:14:35.113Z,40.09
2022-09-03T10:17:11.228Z,40.18
2022-09-03T10:20:10.267Z,39.29
2022-09-03T10:22:48.351Z,38.86
2022-09-03T10:25:30.518Z,39.38
2022-09-03T10:28:01.556Z,39.67
2022-09-03T10:30:29.928Z,38.11
2022-09-03T10:33:15.485Z,38.71
2022-09-03T10:35:51.772Z,38.68
2022-09-03T10:38:40.323Z,37.76
2022-09-03T10:41:23.559Z,36.96
2022-09-03T10:44:35.220Z,37.12
2022-09-03T10:47:07.577Z,37.46
2022-09-03T10:50:03.244Z,36.81
2022-09-03T10:52:30.256Z,36.64
2022-09-03T10:55:27.675Z,36.84
2022-09-03T10:58:25.137Z,35.77
2022-09-03T11:01:03.664Z,36.61
2022-09-03T11:03:30.246Z,35.68
2022-09-03T11:06:11.310Z,35.41
2022-09-03T11:08:43.106Z,35.92
2022-09-03T11:11:16.903Z,35.51
2022-09-03T11:14:00.185Z,35.89
2022-09-03T11:16:32.368Z,34.79
2022-09-03T11:19:08.241Z,35.42
2022-09-03T11:21:38.631Z,34.98
2022-09-03T11:24:22.471Z,35.10
2022-09-03T11:26:57.605Z,34.55
2022-09-03T11:29:47.604Z,34.50
2022-09-03T11:32:43.419Z,33.92
2022-09-03T11:35:25.463Z,33.95
2022-09-03T11:37:58.106Z,34.20
2022-09-03T11:40:35.078Z,34.52
2022-09-03T11:43:25.179Z,34.00
2022-09-03T11:46:23.296Z,34.91
2022-09-03T11:49:13.728Z,33.74
2022-09-03T11:51:44.005Z,33.70
2022-09-03T11:54:13.609Z,33.31
2022-09-03T11:56:42.385Z,32.04
2022-09-03T11:59:14.858Z,33.43
2022-09-03T12:02:05.637Z,32.23
2022-09-03T12:04:44.160Z,32.38
2022-09-03T12:07:32.691Z,31.93
2022-09-03T12:10:25.448Z,32.64
2022-09-03T12:13:01.222Z,33.46
2022-09-03T12:16:00.468Z,33.46
2022-09-03T12:18:32.099Z,32.42
2022-09-03T12:21:00.188Z,32.19
2022-09-03T12:23:28.411Z,33.63
2022-09-03T12:25:55.260Z,31.94
2022-09-03T12:28:31.010Z,32.94
2022-09-03T12:31:21.422Z,30.59
2022-09-03T12:33:59.072Z,31.39
2022-09-03T12:36:27.396Z,32.23
2022-09-03T12:39:11.611Z,33.16
2022-09-03T12:41:39.468Z,33.66
2022-09-03T12:44:06.180Z,33.61
2022-09-03T12:46:34.599Z,30.60
2022-09-03T12:52:06.117Z,31.01
2022-09-03T12:54:39.711Z,32.93
2022-09-03T12:57:06.644Z,31.09
2022-09-03T12:59:36.869Z,31.30
2022-09-03T13:02:21.259Z,31.05
2022-09-03T13:04:48.229Z,32.52
2022-09-03T13:07:22.716Z,31.53
2022-09-03T13:09:50.014Z,29.75
2022-09-03T13:12:33.539Z,31.80
2022-09-03T13:15:11.429Z,31.10
2022-09-03T13:17:51.903Z,31.70
2022-09-03T13:21:29.162Z,31.79
2022-09-03T13:24:34.045Z,31.80
2022-09-03T13:27:08.446Z,31.62
2022-09-03T13:30:06.971Z,31.26
2022-09-03T13:32:44.535Z,29.93
2022-09-03T13:35:37.021Z,31.55
2022-09-03T13:38:09.040Z,32.08
2022-09-03T13:40:43.325Z,31.58
2022-09-03T13:43:42.525Z,30.36
2022-09-03T13:46:26.588Z,31.74
2022-09-03T13:49:18.284Z,29.84
2022-09-03T13:51:55.787Z,30.86
2022-09-03T13:57:36.436Z,31.38
2022-09-03T14:00:10.242Z,32.28
2022-09-03T14:02:57.110Z,31.72
2022-09-03T14:05:26.451Z,32.21
2022-09-03T14:08:33.052Z,31.63
2022-09-03T14:11:32.498Z,30.61
2022-09-03T14:14:31.243Z,31.62
2022-09-03T14:16:57.782Z,30.05
2022-09-03T14:19:38.050Z,29.42
2022-09-03T14:22:33.491Z,30.71
2022-09-03T14:25:05.489Z,29.17
2022-09-03T14:27:33.074Z,29.69
2022-09-03T14:30:49.183Z,30.49
2022-09-03T14:33:56.533Z,31.67
2022-09-03T14:36:38.757Z,31.22
2022-09-03T14:39:13.486Z,31.58
2022-09-03T14:42:01.372Z,30.72
2022-09-03T14:44:40.656Z,30.71
2022-09-03T14:47:24.038Z,31.55
2022-09-03T14:50:33.867Z,31.40
2022-09-03T14:53:03.601Z,31.42
2022-09-03T14:55:33.235Z,29.67
2022-09-03T14:58:08.893Z,30.23
2022-09-03T15:00:58.234Z,31.34
2022-09-03T15:03:49.051Z,30.76
2022-09-03T15:06:32.374Z,32.18
2022-09-03T15:09:07.919Z,30.60
2022-09-03T15:11:48.607Z,31.30
2022-09-03T15:14:23.085Z,29.67
2022-09-03T15:17:15.065Z,30.66
2022-09-03T15:19:55.948Z,30.76
2022-09-03T15:22:41.830Z,31.56
2022-09-03T15:25:23.108Z,31.20
2022-09-03T15:28:17.740Z,31.37
2022-09-03T15:30:53.174Z,31.29
2022-09-03T15:33:47.045Z,32.27
2022-09-03T15:36:25.813Z,31.97
2022-09-03T15:39:01.899Z,32.33
2022-09-03T15:41:45.378Z,32.45
2022-09-03T15:44:19.646Z,32.36
2022-09-03T15:46:53.037Z,32.12
2022-09-03T15:49:21.096Z,33.58
2022-09-03T15:52:09.705Z,32.72
2022-09-03T15:54:43.969Z,32.26
2022-09-03T15:57:17.641Z,32.85
2022-09-03T15:59:54.576Z,34.00
2022-09-03T16:02:46.557Z,32.79
2022-09-03T16:05:46.970Z,32.23
2022-09-03T16:08:33.748Z,33.25
2022-09-03T16:11:28.528Z,31.62
2022-09-03T16:14:16.060Z,32.47
2022-09-03T16:17:03.446Z,33.39
2022-09-03T16:19:48.696Z,30.86
2022-09-03T16:22:50.638Z,32.11
2022-09-03T16:25:23.212Z,32.09
2022-09-03T16:27:59.792Z,31.11
2022-09-03T16:30:38.786Z,31.71
2022-09-03T16:33:26.106Z,31.73
2022-09-03T16:36:04.581Z,32.27
2022-09-03T16:38:49.234Z,32.87
2022-09-03T16:41:27.903Z,32.58
2022-09-03T16:44:01.568Z,32.56
2022-09-03T16:46:37.070Z,32.85
2022-09-03T16:49:33.754Z,33.63
2022-09-03T16:52:33.549Z,33.29
2022-09-03T16:55:22.123Z,34.09
2022-09-03T16:57:54.514Z,33.80
2022-09-03T17:00:22.422Z,34.76
2022-09-03T17:03:48.238Z,34.74
2022-09-03T17:06:17.950Z,35.16
2022-09-03T17:09:15.173Z,35.42
2022-09-03T17:11:48.017Z,35.53
2022-09-03T17:14:45.609Z,36.12
2022-09-03T17:17:12.043Z,36.36
2022-09-03T17:19:51.999Z,36.19
2022-09-03T17:22:39.750Z,35.93
2022-09-03T17:25:34.866Z,36.55
2022-09-03T17:28:49.100Z,36.51
2022-09-03T17:31:51.671Z,36.64
2022-09-03T17:34:51.443Z,36.64
2022-09-03T17:37:56.651Z,37.36
2022-09-03T17:40:27.913Z,37.89
2022-09-03T17:43:18.469Z,38.12
2022-09-03T17:46:40.062Z,38.26
2022-09-03T17:49:08.542Z,39.70
2022-09-03T17:51:46.335Z,39.35
2022-09-03T17:54:35.251Z,39.30
2022-09-03T17:57:20.382Z,39.24
2022-09-03T18:00:01.747Z,38.45
2022-09-03T18:02:35.470Z,38.68
2022-09-03T18:05:18.088Z,39.30
2022-09-03T18:08:23.531Z,39.74
2022-09-03T18:11:02.191Z,40.24
2022-09-03T18:13:56.057Z,40.53
2022-09-03T18:16:32.515Z,40.58
2022-09-03T18:19:19.153Z,41.07
2022-09-03T18:22:07.858Z,41.95
2022-09-03T18:25:10.836Z,42.20
2022-09-03T18:28:01.870Z,42.19
2022-09-03T18:30:47.010Z,42.95
2022-09-03T18:33:32.757Z,42.64
2022-09-03T18:36:18.279Z,43.32
2022-09-03T18:39:03.414Z,44.18
2022-09-03T18:42:14.754Z,44.95
2022-09-03T18:45:21.669Z,45.21
2022-09-03T18:48:31.042Z,45.58
2022-09-03T18:51:36.283Z,45.82
2022-09-03T18:55:08.243Z,45.71
2022-09-03T18:58:33.372Z,45.42
2022-09-03T19:01:29.971Z,45.58
2022-09-03T19:04:55.234Z,45.96
2022-09-03T19:07:46.291Z,46.29
2022-09-03T19:10:41.213Z,46.99
2022-09-03T19:14:04.512Z,46.84
2022-09-03T19:17:05.543Z,48.79
2022-09-03T19:20:07.310Z,48.93
2022-09-03T19:22:55.077Z,49.52
2022-09-03T19:25:41.544Z,49.87
2022-09-03T19:28:50.177Z,49.33
2022-09-03T19:32:10.887Z,48.47
2022-09-03T19:35:26.321Z,48.09
2022-09-03T19:38:23.590Z,48.87
2022-09-03T19:41:30.741Z,48.85
2022-09-03T19:44:35.471Z,48.89
2022-09-03T19:47:22.587Z,50.33
2022-09-03T19:50:44.579Z,49.85
2022-09-03T19:53:37.342Z,50.55
2022-09-03T19:56:29.479Z,51.08
2022-09-03T19:59:19.408Z,51.47
2022-09-03T20:02:05.645Z,51.48
2022-09-03T20:04:54.657Z,51.49
2022-09-03T20:07:40.216Z,51.01
2022-09-03T20:10:25.159Z,50.91
2022-09-03T20:13:15.109Z,50.59
2022-09-03T20:15:59.167Z,50.55
2022-09-03T20:18:48.223Z,50.49
2022-09-03T20:21:30.564Z,50.70
2022-09-03T20:24:12.809Z,52.25
2022-09-03T20:27:00.531Z,53.04
2022-09-03T20:29:51.702Z,54.79
2022-09-03T20:32:55.784Z,54.87
2022-09-03T20:36:05.782Z,55.21
2022-09-03T20:38:44.392Z,54.85
2022-09-03T20:41:37.427Z,55.15
2022-09-03T20:44:28.323Z,56.09
2022-09-03T20:47:22.618Z,56.12
2022-09-03T20:50:14.969Z,57.36
2022-09-03T20:52:54.602Z,56.75
2022-09-03T20:55:28.163Z,56.98
2022-09-03T20:57:57.549Z,56.72
2022-09-03T21:00:24.577Z,57.55
2022-09-03T21:03:15.931Z,57.28
2022-09-03T21:05:58.213Z,56.53
2022-09-03T21:08:52.936Z,56.65
2022-09-03T21:11:32.330Z,56.57
2022-09-03T21:14:06.634Z,56.42
2022-09-03T21:16:36.010Z,56.70
2022-09-03T21:19:17.355Z,56.99
2022-09-03T21:22:14.604Z,56.78
2022-09-03T21:24:52.965Z,57.48
2022-09-03T21:27:29.836Z,57.16
2022-09-03T21:30:02.532Z,57.36
2022-09-03T21:32:45.776Z,57.03
2022-09-03T21:35:27.314Z,56.66
2022-09-03T21:38:13.177Z,56.96
2022-09-03T21:41:04.971Z,57.35
2022-09-03T21:43:49.005Z,56.70
2022-09-03T21:46:35.901Z,56.87
2022-09-03T21:49:12.117Z,56.87
2022-09-03T21:51:52.015Z,57.55
2022-09-03T21:54:37.186Z,57.17
2022-09-03T21:57:17.624Z,57.54
2022-09-03T21:59:51.635Z,57.79
2022-09-03T22:02:30.089Z,57.72
2022-09-03T22:04:57.254Z,58.15
2022-09-03T22:07:41.828Z,57.91
2022-09-03T22:10:16.684Z,59.62
2022-09-03T22:13:09.354Z,60.26
2022-09-03T22:15:38.006Z,61.40
2022-09-03T22:18:17.385Z,61.60
2022-09-03T22:20:53.481Z,61.64
2022-09-03T22:23:28.919Z,61.46
2022-09-03T22:26:01.296Z,61.18
2022-09-03T22:28:37.827Z,60.92
2022-09-03T22:31:18.725Z,60.71
2022-09-03T22:34:03.926Z,60.85
2022-09-03T22:36:47.178Z,60.62
2022-09-03T22:39:13.591Z,60.64
2022-09-03T22:42:17.367Z,60.33
2022-09-03T22:44:51.017Z,61.43
2022-09-03T22:47:58.113Z,60.58
2022-09-03T22:50:36.752Z,61.15
2022-09-03T22:53:22.003Z,60.47
2022-09-03T22:56:11.031Z,60.89
2022-09-03T22:58:41.339Z,61.46
2022-09-03T23:01:18.596Z,60.82
2022-09-03T23:03:57.114Z,60.60
2022-09-03T23:06:33.709Z,60.34
2022-09-03T23:09:23.190Z,60.66
2022-09-03T23:11:55.603Z,61.51
2022-09-03T23:14:29.497Z,61.06
2022-09-03T23:17:00.924Z,60.81
2022-09-03T23:19:57.129Z,60.67
2022-09-03T23:22:31.065Z,61.26
2022-09-03T23:25:03.897Z,61.47
2022-09-03T23:27:46.469Z,60.94
2022-09-03T23:30:13.064Z,61.30
2022-09-03T23:32:39.602Z,61.49
2022-09-03T23:35:19.501Z,61.63
2022-09-03T23:38:04.138Z,61.69
2022-09-03T23:40:45.618Z,61.60
2022-09-03T23:43:28.377Z,61.79
2022-09-03T23:46:07.934Z,61.93
2022-09-03T23:49:08.858Z,61.98
2022-09-03T23:51:38.233Z,62.92
2022-09-03T23:54:19.906Z,63.65
2022-09-03T23:57:04.910Z,64.72
2022-09-03T23:59:34.383Z,65.20
